Bookmark and Share
Track history (hours):
 

Honghai

Last reported at 2014-Apr-24 14:26 UTC. Time now 2014-Apr-24 22:03 UTC.
Position N 35°01' E 139°29'.

Length 72 m; draft 4.3 m.

Type: Cargo ship. MMSI: 515501000.

NotesDate/timePositionNaut miles runAvg speedWind from/ knotsBaromVisibWave heightAir tempDewpointWater temp
2014-Apr-24 14:26N 35°01' E 139°29'8 9.0
2014-Apr-24 13:33N 35°05' E 139°38'9 9.0
2014-Apr-24 12:33N 35°12' E 139°45'8 8.4
2014-Apr-24 11:32N 35°20' E 139°43'8 7.8
2014-Apr-24 10:33N 35°27' E 139°47'9 8.7
2014-Apr-24 09:33N 35°29' E 139°57'3 2.6
2014-Apr-24 08:32N 35°28' E 139°60'0 0.0
2014-Apr-24 07:29N 35°28' E 139°60'0 0.0
2014-Apr-24 06:29N 35°28' E 139°60'0 0.0
2014-Apr-24 05:26N 35°28' E 139°60'0 0.0
2014-Apr-24 04:29N 35°28' E 139°60'0 0.0
2014-Apr-24 03:26N 35°28' E 139°60'0 0.0
2014-Apr-24 02:32N 35°28' E 139°60'0 0.0
2014-Apr-24 01:23N 35°28' E 139°60'0 0.0
2014-Apr-24 00:17N 35°28' E 139°60'0 0.0
2014-Apr-23 23:32N 35°28' E 139°60'0 0.0
2014-Apr-23 22:32N 35°28' E 139°60'0 0.0
2014-Apr-23 21:32N 35°28' E 139°60'0 0.0
2014-Apr-23 20:29N 35°28' E 139°60'0 0.0
2014-Apr-23 19:32N 35°28' E 139°60'0 0.0
2014-Apr-23 18:32N 35°28' E 139°60'0 0.0
2014-Apr-23 17:29N 35°28' E 139°60'0 0.0
2014-Apr-23 16:32N 35°28' E 139°60'0 0.0
2014-Apr-23 15:23N 35°28' E 139°60'0 0.0
2014-Apr-23 14:26N 35°28' E 139°60'0 0.0
2014-Apr-23 13:26N 35°28' E 139°60'0 0.0
2014-Apr-23 12:29N 35°28' E 139°60'0 0.0
2014-Apr-23 11:29N 35°28' E 139°60'0 0.0
2014-Apr-23 10:32N 35°28' E 139°60'0 0.0
2014-Apr-23 09:29N 35°28' E 139°60'0 0.0
2014-Apr-23 08:26N 35°28' E 139°60'0 0.0
2014-Apr-23 07:32N 35°28' E 139°60'0 0.0
2014-Apr-23 06:29N 35°28' E 139°60'0 0.0
2014-Apr-23 05:20N 35°28' E 139°60'0 0.0
2014-Apr-23 04:25N 35°28' E 139°60'0 0.0
2014-Apr-23 03:25N 35°28' E 139°60'0 0.0
2014-Apr-23 02:25N 35°28' E 139°60'0 0.0
2014-Apr-23 01:28N 35°28' E 139°60'0 0.0
2014-Apr-23 00:31N 35°28' E 139°60'0 0.0
2014-Apr-22 23:28N 35°28' E 139°60'0 0.0
2014-Apr-22 22:19N 35°28' E 139°60'0 0.0
2014-Apr-22 21:31N 35°28' E 139°60'3 3.1
2014-Apr-22 20:33N 35°29' E 139°56'0 0.0
2014-Apr-22 19:30N 35°29' E 139°56'0 0.0
2014-Apr-22 18:30N 35°29' E 139°56'0 0.0
2014-Apr-22 17:27N 35°29' E 139°56'0 0.0
2014-Apr-22 16:27N 35°29' E 139°56'0 0.1
2014-Apr-22 15:33N 35°29' E 139°56'0 0.0
2014-Apr-22 14:33N 35°29' E 139°56'0 0.0
2014-Apr-22 13:33N 35°29' E 139°56'0 0.0
2014-Apr-22 12:33N 35°29' E 139°56'0 0.0
2014-Apr-22 11:30N 35°29' E 139°56'0 0.0
2014-Apr-22 10:24N 35°29' E 139°56'0 0.1
2014-Apr-22 09:33N 35°29' E 139°56'0 0.0
2014-Apr-22 08:30N 35°29' E 139°56'0 0.1
2014-Apr-22 07:33N 35°29' E 139°56'0 0.0
2014-Apr-22 06:21N 35°29' E 139°56'0 0.0
2014-Apr-22 05:30N 35°29' E 139°56'0 0.1
2014-Apr-22 04:27N 35°29' E 139°56'0 0.0
2014-Apr-22 03:27N 35°29' E 139°56'0 0.0
2014-Apr-22 02:33N 35°29' E 139°56'0 0.0
2014-Apr-22 01:33N 35°29' E 139°56'0 0.0
2014-Apr-22 00:18N 35°29' E 139°56'2 2.4
2014-Apr-21 23:33N 35°29' E 139°54'8 8.4
2014-Apr-21 22:33N 35°23' E 139°46'8 8.0
2014-Apr-21 21:33N 35°15' E 139°47'8 8.1
2014-Apr-21 20:33N 35°08' E 139°44'8 8.2
2014-Apr-21 19:33N 35°02' E 139°36'227 6.1
2014-Apr-20 06:25N 34°33' E 135°03'  

Dump ship's entire track history

sailing weather and tide predictions

Honghai — XUBU8 — position and weather